createdAt,value
2018-07-13T00:00:26.697Z,23.56
2018-07-13T00:01:27.284Z,23.51
2018-07-13T00:02:27.872Z,23.56
2018-07-13T00:03:28.507Z,23.59
2018-07-13T00:04:29.090Z,23.59
2018-07-13T00:05:29.678Z,23.59
2018-07-13T00:06:30.308Z,23.56
2018-07-13T00:07:30.900Z,23.55
2018-07-13T00:08:31.491Z,23.55
2018-07-13T00:09:32.163Z,23.58
2018-07-13T00:10:32.750Z,23.55
2018-07-13T00:11:33.337Z,23.55
2018-07-13T00:12:33.924Z,23.56
2018-07-13T00:13:34.561Z,23.51
2018-07-13T00:14:35.142Z,23.50
2018-07-13T00:15:35.727Z,23.54
2018-07-13T00:16:36.321Z,23.50
2018-07-13T00:17:36.961Z,23.55
2018-07-13T00:18:37.494Z,23.48
2018-07-13T00:19:38.085Z,23.56
2018-07-13T00:20:38.671Z,23.55
2018-07-13T00:21:39.260Z,23.55
2018-07-13T00:22:39.851Z,23.54
2018-07-13T00:23:40.439Z,23.51
2018-07-13T00:24:41.031Z,23.55
2018-07-13T00:25:41.671Z,23.55
2018-07-13T00:26:42.405Z,23.47
2018-07-13T00:27:42.992Z,23.51
2018-07-13T00:28:43.581Z,23.55
2018-07-13T00:29:44.224Z,23.47
2018-07-13T00:30:44.804Z,23.51
2018-07-13T00:31:45.392Z,23.50
2018-07-13T00:32:45.980Z,23.48
2018-07-13T00:33:46.572Z,23.46
2018-07-13T00:34:47.165Z,23.50
2018-07-13T00:35:47.755Z,23.50
2018-07-13T00:36:48.336Z,23.46
2018-07-13T00:37:48.930Z,23.51
2018-07-13T00:38:49.513Z,23.48
2018-07-13T00:39:50.114Z,23.41
2018-07-13T00:40:50.690Z,23.51
2018-07-13T00:41:51.327Z,23.54
2018-07-13T00:42:51.915Z,23.50
2018-07-13T00:43:52.496Z,23.46
2018-07-13T00:44:53.134Z,23.50
2018-07-13T00:45:53.720Z,23.43
2018-07-13T00:46:54.308Z,23.48
2018-07-13T00:47:54.897Z,23.47
2018-07-13T00:48:55.488Z,23.46
2018-07-13T00:49:56.129Z,23.46
2018-07-13T00:50:56.718Z,23.46
2018-07-13T00:51:57.302Z,23.51
2018-07-13T00:52:57.888Z,23.46
2018-07-13T00:53:58.473Z,23.51
2018-07-13T00:54:59.067Z,23.48
2018-07-13T00:55:59.654Z,23.50
2018-07-13T00:57:00.248Z,23.54
2018-07-13T00:58:00.833Z,23.51
2018-07-13T00:59:01.474Z,23.48
2018-07-13T01:00:02.164Z,23.51
2018-07-13T01:01:02.741Z,23.46
2018-07-13T01:02:03.335Z,23.48
2018-07-13T01:03:03.930Z,23.40
2018-07-13T01:04:04.565Z,23.43
2018-07-13T01:05:05.153Z,23.44
2018-07-13T01:06:05.744Z,23.41
2018-07-13T01:07:06.383Z,23.39
2018-07-13T01:08:06.968Z,23.37
2018-07-13T01:09:07.559Z,23.37
2018-07-13T01:10:08.148Z,23.40
2018-07-13T01:11:08.735Z,23.39
2018-07-13T01:12:09.316Z,23.39
2018-07-13T01:13:09.899Z,23.37
2018-07-13T01:14:10.488Z,23.43
2018-07-13T01:15:11.081Z,23.40
2018-07-13T01:16:11.666Z,23.40
2018-07-13T01:17:12.299Z,23.43
2018-07-13T01:18:12.940Z,23.40
2018-07-13T01:19:13.576Z,23.39
2018-07-13T01:20:14.163Z,23.37
2018-07-13T01:21:14.799Z,23.39
2018-07-13T01:22:15.390Z,23.41
2018-07-13T01:23:15.974Z,23.41
2018-07-13T01:24:16.611Z,23.43
2018-07-13T01:25:17.199Z,23.40
2018-07-13T01:26:17.837Z,23.34
2018-07-13T01:27:18.425Z,23.40
2018-07-13T01:28:19.013Z,23.37
2018-07-13T01:29:19.602Z,23.37
2018-07-13T01:30:20.190Z,23.28
2018-07-13T01:31:20.774Z,23.43
2018-07-13T01:32:21.357Z,23.40
2018-07-13T01:33:21.939Z,23.40
2018-07-13T01:34:22.529Z,23.39
2018-07-13T01:35:23.114Z,23.39
2018-07-13T01:36:23.703Z,23.39
2018-07-13T01:37:24.280Z,23.40
2018-07-13T01:38:24.864Z,23.39
2018-07-13T01:39:25.453Z,23.39
2018-07-13T01:40:26.089Z,23.32
2018-07-13T01:41:26.724Z,23.31
2018-07-13T01:42:27.312Z,23.34
2018-07-13T01:43:27.947Z,23.36
2018-07-13T01:44:28.535Z,23.31
2018-07-13T01:45:29.116Z,23.32
2018-07-13T01:46:29.699Z,23.31
2018-07-13T01:47:30.286Z,23.34
2018-07-13T01:48:30.879Z,23.32
2018-07-13T01:49:31.509Z,23.27
2018-07-13T01:50:32.094Z,23.32
2018-07-13T01:51:32.675Z,23.37
2018-07-13T01:52:33.257Z,23.37
2018-07-13T01:53:33.845Z,23.32
2018-07-13T01:54:34.432Z,23.27
2018-07-13T01:55:35.020Z,23.39
2018-07-13T01:56:35.597Z,23.27
2018-07-13T01:57:36.227Z,23.31
2018-07-13T01:58:36.811Z,23.31
2018-07-13T01:59:37.404Z,23.39
2018-07-13T02:00:38.083Z,23.37
2018-07-13T02:01:38.666Z,23.39
2018-07-13T02:02:39.304Z,23.32
2018-07-13T02:03:39.890Z,23.37
2018-07-13T02:04:40.471Z,23.39
2018-07-13T02:05:41.057Z,23.31
2018-07-13T02:06:41.641Z,23.34
2018-07-13T02:07:42.227Z,23.27
2018-07-13T02:08:42.808Z,23.37
2018-07-13T02:09:43.396Z,23.37
2018-07-13T02:10:43.981Z,23.39
2018-07-13T02:11:44.567Z,23.37
2018-07-13T02:12:45.156Z,23.36
2018-07-13T02:13:45.741Z,23.32
2018-07-13T02:14:46.327Z,23.24
2018-07-13T02:15:46.915Z,23.23
2018-07-13T02:16:47.551Z,23.25
2018-07-13T02:17:48.188Z,23.28
2018-07-13T02:18:48.773Z,23.24
2018-07-13T02:19:49.352Z,23.27
2018-07-13T02:20:49.940Z,23.27
2018-07-13T02:21:50.577Z,23.27
2018-07-13T02:22:51.162Z,23.27
2018-07-13T02:23:51.747Z,23.24
2018-07-13T02:24:52.333Z,23.24
2018-07-13T02:25:52.914Z,23.21
2018-07-13T02:26:53.501Z,23.27
2018-07-13T02:27:54.126Z,23.20
2018-07-13T02:28:54.753Z,23.24
2018-07-13T02:29:55.342Z,23.23
2018-07-13T02:30:55.954Z,23.21
2018-07-13T02:31:56.512Z,23.24
2018-07-13T02:32:57.094Z,23.24
2018-07-13T02:33:57.826Z,23.24
2018-07-13T02:34:58.448Z,23.17
2018-07-13T02:35:58.951Z,23.15
2018-07-13T02:36:59.530Z,23.18
2018-07-13T02:38:00.117Z,23.13
2018-07-13T02:39:00.804Z,23.24
2018-07-13T02:40:01.342Z,23.17
2018-07-13T02:41:01.945Z,23.20
2018-07-13T02:42:02.505Z,23.18
2018-07-13T02:43:03.092Z,23.15
2018-07-13T02:44:03.677Z,23.13
2018-07-13T02:45:04.264Z,23.18
2018-07-13T02:46:04.849Z,23.17
2018-07-13T02:47:05.434Z,23.23
2018-07-13T02:48:06.021Z,23.17
2018-07-13T02:49:06.606Z,23.15
2018-07-13T02:50:07.194Z,23.21
2018-07-13T02:51:07.823Z,23.18
2018-07-13T02:52:08.464Z,23.23
2018-07-13T02:53:09.045Z,23.21
2018-07-13T02:54:09.631Z,23.20
2018-07-13T02:55:10.217Z,23.12
2018-07-13T02:56:10.796Z,23.20
2018-07-13T02:57:11.381Z,23.12
2018-07-13T02:58:12.020Z,23.18
2018-07-13T02:59:12.604Z,23.20
2018-07-13T03:00:13.191Z,23.15
2018-07-13T03:01:13.772Z,23.23
2018-07-13T03:02:14.401Z,23.08
2018-07-13T03:03:14.978Z,23.13
2018-07-13T03:04:15.579Z,23.20
2018-07-13T03:05:16.154Z,23.21
2018-07-13T03:06:16.794Z,23.18
2018-07-13T03:07:17.420Z,23.12
2018-07-13T03:08:18.055Z,23.18
2018-07-13T03:09:18.640Z,23.18
2018-07-13T03:10:19.228Z,23.18
2018-07-13T03:11:19.865Z,23.17
2018-07-13T03:12:20.453Z,23.18
2018-07-13T03:13:21.034Z,23.20
2018-07-13T03:14:21.621Z,23.20
2018-07-13T03:15:22.251Z,23.13
2018-07-13T03:16:22.837Z,23.20
2018-07-13T03:17:23.430Z,23.15
2018-07-13T03:18:24.010Z,23.06
2018-07-13T03:19:24.591Z,23.06
2018-07-13T03:20:25.184Z,23.08
2018-07-13T03:21:25.759Z,23.18
2018-07-13T03:22:26.355Z,23.18
2018-07-13T03:23:26.976Z,23.15
2018-07-13T03:24:27.559Z,23.17
2018-07-13T03:25:28.148Z,23.08
2018-07-13T03:26:28.785Z,23.23
2018-07-13T03:27:29.421Z,23.21
2018-07-13T03:28:30.009Z,23.25
2018-07-13T03:29:30.642Z,23.18
2018-07-13T03:30:31.230Z,23.18
2018-07-13T03:31:31.815Z,23.05
2018-07-13T03:32:32.391Z,23.18
2018-07-13T03:33:32.979Z,23.25
2018-07-13T03:34:33.562Z,23.20
2018-07-13T03:35:34.191Z,23.13
2018-07-13T03:36:34.778Z,23.18
2018-07-13T03:37:35.415Z,23.21
2018-07-13T03:38:36.002Z,23.10
2018-07-13T03:39:36.581Z,23.12
2018-07-13T03:40:37.175Z,23.20
2018-07-13T03:41:37.753Z,23.21
2018-07-13T03:42:38.337Z,23.18
2018-07-13T03:43:38.926Z,23.15
2018-07-13T03:44:39.507Z,23.21
2018-07-13T03:45:40.148Z,23.18
2018-07-13T03:46:40.771Z,23.21
2018-07-13T03:47:41.364Z,23.27
2018-07-13T03:48:41.997Z,23.12
2018-07-13T03:49:42.581Z,23.15
2018-07-13T03:50:43.217Z,23.25
2018-07-13T03:51:43.846Z,23.17
2018-07-13T03:52:44.429Z,23.20
2018-07-13T03:53:45.018Z,23.18
2018-07-13T03:54:45.600Z,23.21
2018-07-13T03:55:46.187Z,23.06
2018-07-13T03:56:46.772Z,23.18
2018-07-13T03:57:47.358Z,23.20
2018-07-13T03:58:47.941Z,23.20
2018-07-13T03:59:48.525Z,23.23
2018-07-13T04:00:49.154Z,23.23
2018-07-13T04:01:49.793Z,23.21
2018-07-13T04:02:50.376Z,23.10
2018-07-13T04:03:50.989Z,23.17
2018-07-13T04:04:51.542Z,23.18
2018-07-13T04:05:52.174Z,23.20
2018-07-13T04:06:52.759Z,23.17
2018-07-13T04:07:53.349Z,23.10
2018-07-13T04:08:53.932Z,23.24
2018-07-13T04:09:54.518Z,23.23
2018-07-13T04:10:55.097Z,23.18
2018-07-13T04:11:55.684Z,23.17
2018-07-13T04:12:56.269Z,23.21
2018-07-13T04:13:56.855Z,23.18
2018-07-13T04:14:57.435Z,23.10
2018-07-13T04:15:58.020Z,23.18
2018-07-13T04:16:58.656Z,23.18
2018-07-13T04:17:59.240Z,23.24
2018-07-13T04:18:59.880Z,23.24
2018-07-13T04:20:00.457Z,23.12
2018-07-13T04:21:01.044Z,23.21
2018-07-13T04:22:01.722Z,23.21
2018-07-13T04:23:02.300Z,23.17
2018-07-13T04:24:02.931Z,23.09
2018-07-13T04:25:03.517Z,23.18
2018-07-13T04:26:04.099Z,23.18
2018-07-13T04:27:04.677Z,23.18
2018-07-13T04:28:05.258Z,23.18
2018-07-13T04:29:05.843Z,23.09
2018-07-13T04:30:06.432Z,23.15
2018-07-13T04:31:07.017Z,23.17
2018-07-13T04:32:07.649Z,23.17
2018-07-13T04:33:08.242Z,23.15
2018-07-13T04:34:08.898Z,23.18
2018-07-13T04:35:09.415Z,23.18
2018-07-13T04:36:09.998Z,23.15
2018-07-13T04:37:10.640Z,23.06
2018-07-13T04:38:11.269Z,23.18
2018-07-13T04:39:11.854Z,23.17
2018-07-13T04:40:12.436Z,23.17
2018-07-13T04:41:13.022Z,23.15
2018-07-13T04:42:13.608Z,23.15
2018-07-13T04:43:14.193Z,23.17
2018-07-13T04:44:14.828Z,23.18
2018-07-13T04:45:15.412Z,23.17
2018-07-13T04:46:15.994Z,23.20
2018-07-13T04:47:16.580Z,23.05
2018-07-13T04:48:17.168Z,23.15
2018-07-13T04:49:17.755Z,23.20
2018-07-13T04:50:18.439Z,23.15
2018-07-13T04:51:18.974Z,23.18
2018-07-13T04:52:19.556Z,23.10
2018-07-13T04:53:20.141Z,23.17
2018-07-13T04:54:20.727Z,23.10
2018-07-13T04:55:21.314Z,23.12
2018-07-13T04:56:21.900Z,23.10
2018-07-13T04:57:22.489Z,23.15
2018-07-13T04:58:23.123Z,23.13
2018-07-13T04:59:23.755Z,23.15
2018-07-13T05:00:24.336Z,23.15
2018-07-13T05:01:24.918Z,23.18
2018-07-13T05:02:25.557Z,23.12
2018-07-13T05:03:26.138Z,23.09
2018-07-13T05:04:26.725Z,23.05
2018-07-13T05:05:27.311Z,23.12
2018-07-13T05:06:27.896Z,23.12
2018-07-13T05:07:28.485Z,23.13
2018-07-13T05:08:29.071Z,23.08
2018-07-13T05:09:29.658Z,23.17
2018-07-13T05:10:30.289Z,23.13
2018-07-13T05:11:30.874Z,23.08
2018-07-13T05:12:31.464Z,23.10
2018-07-13T05:13:32.047Z,23.10
2018-07-13T05:14:32.630Z,23.06
2018-07-13T05:15:33.234Z,23.06
2018-07-13T05:16:33.837Z,23.08
2018-07-13T05:17:34.421Z,23.06
2018-07-13T05:18:35.010Z,23.13
2018-07-13T05:19:35.589Z,23.09
2018-07-13T05:20:36.225Z,23.08
2018-07-13T05:21:36.859Z,23.10
2018-07-13T05:22:37.445Z,23.13
2018-07-13T05:23:38.026Z,23.08
2018-07-13T05:24:38.615Z,23.20
2018-07-13T05:25:39.200Z,23.08
2018-07-13T05:26:39.786Z,23.08
2018-07-13T05:27:40.363Z,23.13
2018-07-13T05:28:40.946Z,23.06
2018-07-13T05:29:41.587Z,23.15
2018-07-13T05:30:42.222Z,23.08
2018-07-13T05:31:42.804Z,23.08
2018-07-13T05:32:43.488Z,23.06
2018-07-13T05:33:44.069Z,23.02
2018-07-13T05:34:44.659Z,23.06
2018-07-13T05:35:45.346Z,23.12
2018-07-13T05:36:45.935Z,23.10
2018-07-13T05:37:46.521Z,23.12
2018-07-13T05:38:47.099Z,23.08
2018-07-13T05:39:47.680Z,23.15
2018-07-13T05:40:48.310Z,23.09
2018-07-13T05:41:48.889Z,23.09
2018-07-13T05:42:49.478Z,23.18
2018-07-13T05:43:50.113Z,23.06
2018-07-13T05:44:50.701Z,23.05
2018-07-13T05:45:51.286Z,23.08
2018-07-13T05:46:51.869Z,23.02
2018-07-13T05:47:52.457Z,23.00
2018-07-13T05:48:53.089Z,23.05
2018-07-13T05:49:53.725Z,23.06
2018-07-13T05:50:54.307Z,23.05
2018-07-13T05:51:54.946Z,23.00
2018-07-13T05:52:55.527Z,23.02
2018-07-13T05:53:56.118Z,23.02
2018-07-13T05:54:56.700Z,23.03
2018-07-13T05:55:57.287Z,23.03
2018-07-13T05:56:57.872Z,23.06
2018-07-13T05:57:58.460Z,23.02
2018-07-13T05:58:59.037Z,23.03
2018-07-13T05:59:59.625Z,23.05
2018-07-13T06:01:00.213Z,23.05
2018-07-13T06:02:00.795Z,23.03
2018-07-13T06:03:01.383Z,23.00
2018-07-13T06:04:02.069Z,23.02
2018-07-13T06:05:02.601Z,23.05
2018-07-13T06:06:03.235Z,22.96
2018-07-13T06:07:03.816Z,23.02
2018-07-13T06:08:04.400Z,23.05
2018-07-13T06:09:05.031Z,23.05
2018-07-13T06:10:05.620Z,22.98
2018-07-13T06:11:06.206Z,23.00
2018-07-13T06:12:06.792Z,23.00
2018-07-13T06:13:07.380Z,23.03
2018-07-13T06:14:07.958Z,23.12
2018-07-13T06:15:08.596Z,23.06
2018-07-13T06:16:09.172Z,23.05
2018-07-13T06:17:09.761Z,23.06
2018-07-13T06:18:10.349Z,23.02
2018-07-13T06:19:10.975Z,23.12
2018-07-13T06:20:11.517Z,22.98
2018-07-13T06:21:12.106Z,23.05
2018-07-13T06:22:12.735Z,23.05
2018-07-13T06:23:13.324Z,23.05
2018-07-13T06:24:13.996Z,23.06
2018-07-13T06:25:14.544Z,22.98
2018-07-13T06:26:15.129Z,22.99
2018-07-13T06:27:15.766Z,23.03
2018-07-13T06:28:16.350Z,23.12
2018-07-13T06:29:16.931Z,23.00
2018-07-13T06:30:17.583Z,23.10
2018-07-13T06:31:18.110Z,23.02
2018-07-13T06:32:18.690Z,23.05
2018-07-13T06:33:19.279Z,23.05
2018-07-13T06:34:19.864Z,23.06
2018-07-13T06:35:20.450Z,22.98
2018-07-13T06:36:21.036Z,23.02
2018-07-13T06:37:21.620Z,23.06
2018-07-13T06:38:22.256Z,22.98
2018-07-13T06:39:22.842Z,23.05
2018-07-13T06:40:23.483Z,22.94
2018-07-13T06:41:24.112Z,22.98
2018-07-13T06:42:24.693Z,22.93
2018-07-13T06:43:25.283Z,22.96
2018-07-13T06:44:25.866Z,22.93
2018-07-13T06:45:26.454Z,22.98
2018-07-13T06:46:27.042Z,22.94
2018-07-13T06:47:27.672Z,22.94
2018-07-13T06:48:28.306Z,22.96
2018-07-13T06:49:28.893Z,22.93
2018-07-13T06:50:29.543Z,22.96
2018-07-13T06:51:30.064Z,22.99
2018-07-13T06:52:30.648Z,22.93
2018-07-13T06:53:31.234Z,22.94
2018-07-13T06:54:31.866Z,22.99
2018-07-13T06:55:32.456Z,23.00
2018-07-13T06:56:33.043Z,22.93
2018-07-13T06:57:33.679Z,22.91
2018-07-13T06:58:34.266Z,22.99
2018-07-13T06:59:34.847Z,23.00
2018-07-13T07:00:35.480Z,22.99
2018-07-13T07:01:36.070Z,23.02
2018-07-13T07:02:36.653Z,23.00
2018-07-13T07:03:37.237Z,22.94
2018-07-13T07:04:37.815Z,22.98
2018-07-13T07:05:38.401Z,22.98
2018-07-13T07:06:38.989Z,22.99
2018-07-13T07:07:39.608Z,22.98
2018-07-13T07:08:40.158Z,22.99
2018-07-13T07:09:40.745Z,23.03
2018-07-13T07:10:41.327Z,22.99
2018-07-13T07:11:41.910Z,23.06
2018-07-13T07:12:42.501Z,23.05
2018-07-13T07:13:43.088Z,23.03
2018-07-13T07:14:43.672Z,23.06
2018-07-13T07:15:44.260Z,22.99
2018-07-13T07:16:44.897Z,22.99
2018-07-13T07:17:45.538Z,23.03
2018-07-13T07:18:46.116Z,23.03
2018-07-13T07:19:46.702Z,22.98
2018-07-13T07:20:47.288Z,23.05
2018-07-13T07:21:47.871Z,23.02
2018-07-13T07:22:48.459Z,23.12
2018-07-13T07:23:49.099Z,23.06
2018-07-13T07:24:49.682Z,23.06
2018-07-13T07:25:50.268Z,23.05
2018-07-13T07:26:50.853Z,23.05
2018-07-13T07:27:51.439Z,23.10
2018-07-13T07:28:52.026Z,23.06
2018-07-13T07:29:52.611Z,23.05
2018-07-13T07:30:53.200Z,23.05
2018-07-13T07:31:53.784Z,23.03
2018-07-13T07:32:54.421Z,22.99
2018-07-13T07:33:55.004Z,23.02
2018-07-13T07:34:55.590Z,23.02
2018-07-13T07:35:56.228Z,23.05
2018-07-13T07:36:56.813Z,23.02
2018-07-13T07:37:57.395Z,23.12
2018-07-13T07:38:57.984Z,23.08
2018-07-13T07:39:58.565Z,23.03
2018-07-13T07:40:59.209Z,23.06
2018-07-13T07:41:59.828Z,23.02
2018-07-13T07:43:00.417Z,23.02
2018-07-13T07:44:01.131Z,23.06
2018-07-13T07:45:01.682Z,23.02
2018-07-13T07:46:02.269Z,23.10
2018-07-13T07:47:02.854Z,23.03
2018-07-13T07:48:03.438Z,23.06
2018-07-13T07:49:04.024Z,23.06
2018-07-13T07:50:04.633Z,23.06
2018-07-13T07:51:05.191Z,23.03
2018-07-13T07:52:05.780Z,23.09
2018-07-13T07:53:06.412Z,23.02
2018-07-13T07:54:06.993Z,23.05
2018-07-13T07:55:07.584Z,23.03
2018-07-13T07:56:08.164Z,23.05
2018-07-13T07:57:08.803Z,23.05
2018-07-13T07:58:09.389Z,23.05
2018-07-13T07:59:10.027Z,23.03
2018-07-13T08:00:10.612Z,23.00
2018-07-13T08:01:11.193Z,23.10
2018-07-13T08:02:11.773Z,23.09
2018-07-13T08:03:12.386Z,23.10
2018-07-13T08:04:12.945Z,23.12
2018-07-13T08:05:13.530Z,23.09
2018-07-13T08:06:14.308Z,23.12
2018-07-13T08:07:15.280Z,23.09
2018-07-13T08:08:15.339Z,23.08
2018-07-13T08:09:15.921Z,23.18
2018-07-13T08:10:16.508Z,23.17
2018-07-13T08:11:17.091Z,23.15
2018-07-13T08:12:17.678Z,23.12
2018-07-13T08:13:18.267Z,23.24
2018-07-13T08:14:18.991Z,23.20
2018-07-13T08:15:19.485Z,23.23
2018-07-13T08:16:20.072Z,23.12
2018-07-13T08:17:20.655Z,23.20
2018-07-13T08:18:21.291Z,23.12
2018-07-13T08:19:21.875Z,23.20
2018-07-13T08:20:27.533Z,23.20
2018-07-13T08:21:28.090Z,23.18
2018-07-13T08:22:28.679Z,23.20
2018-07-13T08:23:29.300Z,23.10
2018-07-13T08:24:29.884Z,23.24
2018-07-13T08:25:30.472Z,23.24
2018-07-13T08:26:31.106Z,23.23
2018-07-13T08:27:31.695Z,23.27
2018-07-13T08:28:32.277Z,23.20
2018-07-13T08:29:32.866Z,23.23
2018-07-13T08:30:33.502Z,23.18
2018-07-13T08:31:34.090Z,23.21
2018-07-13T08:32:34.676Z,23.27
2018-07-13T08:33:35.268Z,23.23
2018-07-13T08:34:35.849Z,23.25
2018-07-13T08:35:36.432Z,23.25
2018-07-13T08:36:37.015Z,23.25
2018-07-13T08:37:37.628Z,23.24
2018-07-13T08:38:38.236Z,23.24
2018-07-13T08:39:38.820Z,23.27
2018-07-13T08:40:39.408Z,23.25
2018-07-13T08:41:39.995Z,23.34
2018-07-13T08:42:40.577Z,23.23
2018-07-13T08:43:41.186Z,23.24
2018-07-13T08:44:41.748Z,23.25
2018-07-13T08:45:42.437Z,23.27
2018-07-13T08:46:42.968Z,23.34
2018-07-13T08:47:43.548Z,23.36
2018-07-13T08:48:44.188Z,23.25
2018-07-13T08:49:44.817Z,23.27
2018-07-13T08:50:45.400Z,23.27
2018-07-13T08:51:46.068Z,23.36
2018-07-13T08:52:46.572Z,23.34
2018-07-13T08:53:47.162Z,23.28
2018-07-13T08:54:47.752Z,23.39
2018-07-13T08:55:48.337Z,23.27
2018-07-13T08:56:48.973Z,23.39
2018-07-13T08:57:49.560Z,23.39
2018-07-13T08:58:50.195Z,23.36
2018-07-13T08:59:50.807Z,23.36
2018-07-13T09:00:51.369Z,23.40
2018-07-13T09:01:51.960Z,23.36
2018-07-13T09:02:52.586Z,23.32
2018-07-13T09:03:53.176Z,23.39
2018-07-13T09:04:53.762Z,23.39
2018-07-13T09:05:54.407Z,23.37
2018-07-13T09:06:54.987Z,23.31
2018-07-13T09:07:55.572Z,23.32
2018-07-13T09:08:56.158Z,23.41
2018-07-13T09:09:56.743Z,23.41
2018-07-13T09:10:57.377Z,23.41
2018-07-13T09:11:57.998Z,23.40
2018-07-13T09:12:58.568Z,23.40
2018-07-13T09:13:59.136Z,23.39
2018-07-13T09:14:59.770Z,23.40
2018-07-13T09:16:00.405Z,23.41
2018-07-13T09:17:00.992Z,23.43
2018-07-13T09:18:01.576Z,23.39
2018-07-13T09:19:02.165Z,23.43
2018-07-13T09:20:02.745Z,23.54
2018-07-13T09:21:03.334Z,23.50
2018-07-13T09:22:03.923Z,23.46
2018-07-13T09:23:04.505Z,23.51
2018-07-13T09:24:05.133Z,23.51
2018-07-13T09:25:05.731Z,23.51
2018-07-13T09:26:06.322Z,23.58
2018-07-13T09:27:06.905Z,23.58
2018-07-13T09:28:07.492Z,23.55
2018-07-13T09:29:08.078Z,23.59
2018-07-13T09:30:08.713Z,23.51
2018-07-13T09:31:09.321Z,23.51
2018-07-13T09:32:09.935Z,23.56
2018-07-13T09:33:10.534Z,23.55
2018-07-13T09:34:11.114Z,23.59
2018-07-13T09:35:11.750Z,23.59
2018-07-13T09:36:12.332Z,23.61
2018-07-13T09:37:12.922Z,23.58
2018-07-13T09:38:13.513Z,23.56
2018-07-13T09:39:14.092Z,23.61
2018-07-13T09:40:14.731Z,23.59
2018-07-13T09:41:15.314Z,23.58
2018-07-13T09:42:15.905Z,23.61
2018-07-13T09:43:16.499Z,23.63
2018-07-13T09:44:17.182Z,23.59
2018-07-13T09:45:17.818Z,23.66
2018-07-13T09:46:18.402Z,23.55
2018-07-13T09:47:19.038Z,23.56
2018-07-13T09:48:19.678Z,23.66
2018-07-13T09:49:20.313Z,23.56
2018-07-13T09:50:20.898Z,23.62
2018-07-13T09:51:21.533Z,23.62
2018-07-13T09:52:22.113Z,23.62
2018-07-13T09:53:22.704Z,23.66
2018-07-13T09:54:23.291Z,23.63
2018-07-13T09:55:23.876Z,23.65
2018-07-13T09:56:24.460Z,23.61
2018-07-13T09:57:25.050Z,23.59
2018-07-13T09:58:25.637Z,23.66
2018-07-13T09:59:26.225Z,23.61
2018-07-13T10:00:26.920Z,23.63
2018-07-13T10:01:27.497Z,23.61
2018-07-13T10:02:28.083Z,23.61
2018-07-13T10:03:28.664Z,23.55
2018-07-13T10:04:29.255Z,23.58
2018-07-13T10:05:29.840Z,23.61
2018-07-13T10:06:30.481Z,23.69
2018-07-13T10:07:31.064Z,23.71
2018-07-13T10:08:31.650Z,23.71
2018-07-13T10:09:32.287Z,23.74
2018-07-13T10:10:32.876Z,23.71
2018-07-13T10:11:33.463Z,23.74
2018-07-13T10:12:34.050Z,23.73
2018-07-13T10:13:34.639Z,23.74
2018-07-13T10:14:35.226Z,23.74
2018-07-13T10:15:35.811Z,23.74
2018-07-13T10:16:36.402Z,23.71
2018-07-13T10:17:36.992Z,23.68
2018-07-13T10:18:37.571Z,23.76
2018-07-13T10:19:38.163Z,23.80
2018-07-13T10:20:38.809Z,23.68
2018-07-13T10:21:39.334Z,23.73
2018-07-13T10:22:39.922Z,23.81
2018-07-13T10:23:40.558Z,23.80
2018-07-13T10:24:41.191Z,23.81
2018-07-13T10:25:41.825Z,23.74
2018-07-13T10:26:42.413Z,23.77
2018-07-13T10:27:43.001Z,23.74
2018-07-13T10:28:43.583Z,23.74
2018-07-13T10:29:44.173Z,23.73
2018-07-13T10:30:44.759Z,23.69
2018-07-13T10:31:45.353Z,23.74
2018-07-13T10:32:45.934Z,23.74
2018-07-13T10:33:46.517Z,23.76
2018-07-13T10:34:47.103Z,23.78
2018-07-13T10:35:47.691Z,23.73
2018-07-13T10:36:48.275Z,23.80
2018-07-13T10:37:48.864Z,23.74
2018-07-13T10:38:49.451Z,23.83
2018-07-13T10:39:50.036Z,23.73
2018-07-13T10:40:50.673Z,23.73
2018-07-13T10:41:51.257Z,23.71
2018-07-13T10:42:51.847Z,23.76
2018-07-13T10:43:52.440Z,23.86
2018-07-13T10:44:53.080Z,24.11
2018-07-13T10:45:53.667Z,24.26
2018-07-13T10:46:54.262Z,24.43
2018-07-13T10:47:54.854Z,24.53
2018-07-13T10:48:55.497Z,24.60
2018-07-13T10:49:56.090Z,24.76
2018-07-13T10:50:56.684Z,24.86
2018-07-13T10:51:57.272Z,24.99
2018-07-13T10:52:57.868Z,25.06
2018-07-13T10:53:58.457Z,25.10
2018-07-13T10:54:59.047Z,25.22
2018-07-13T10:55:59.638Z,25.23
2018-07-13T10:57:00.271Z,25.36
2018-07-13T10:58:00.866Z,25.41
2018-07-13T10:59:01.460Z,25.44
2018-07-13T11:00:02.103Z,25.44
2018-07-13T11:01:02.697Z,25.33
2018-07-13T11:02:03.284Z,25.38
2018-07-13T11:03:03.879Z,25.40
2018-07-13T11:04:04.474Z,25.35
2018-07-13T11:05:05.061Z,25.46
2018-07-13T11:06:05.657Z,25.40
2018-07-13T11:07:06.244Z,25.40
2018-07-13T11:08:06.883Z,25.44
2018-07-13T11:09:07.487Z,25.54
2018-07-13T11:10:08.133Z,25.48
2018-07-13T11:11:08.729Z,25.54
2018-07-13T11:12:09.321Z,25.60
2018-07-13T11:13:09.915Z,25.72
2018-07-13T11:14:10.509Z,25.73
2018-07-13T11:15:11.147Z,25.69
2018-07-13T11:16:11.747Z,25.80
2018-07-13T11:17:12.393Z,25.90
2018-07-13T11:18:12.988Z,25.81
2018-07-13T11:19:13.581Z,25.80
2018-07-13T11:20:14.175Z,25.85
2018-07-13T11:21:14.764Z,25.81
2018-07-13T11:22:15.364Z,25.85
2018-07-13T11:23:15.962Z,25.78
2018-07-13T11:24:16.622Z,25.83
2018-07-13T11:25:17.151Z,25.83
2018-07-13T11:26:17.795Z,25.84
2018-07-13T11:27:18.386Z,25.85
2018-07-13T11:28:19.035Z,25.88
2018-07-13T11:29:19.673Z,25.80
2018-07-13T11:30:25.478Z,25.91
2018-07-13T11:31:26.173Z,25.88
2018-07-13T11:32:26.819Z,25.81
2018-07-13T11:33:27.417Z,25.87
2018-07-13T11:34:28.114Z,25.87
2018-07-13T11:35:28.708Z,25.88
2018-07-13T11:36:29.305Z,25.84
2018-07-13T11:37:29.902Z,25.83
2018-07-13T11:38:30.537Z,25.91
2018-07-13T11:39:31.131Z,25.99
2018-07-13T11:40:31.727Z,25.98
2018-07-13T11:41:32.324Z,25.96
2018-07-13T11:42:32.912Z,25.98
2018-07-13T11:43:33.511Z,26.00
2018-07-13T11:44:34.105Z,26.03
2018-07-13T11:45:34.701Z,26.00
2018-07-13T11:46:35.296Z,25.88
2018-07-13T11:47:35.888Z,25.88
2018-07-13T11:48:36.529Z,25.98
2018-07-13T11:49:37.170Z,25.90
2018-07-13T11:50:37.818Z,25.90
2018-07-13T11:51:38.407Z,25.90
2018-07-13T11:52:39.002Z,25.83
2018-07-13T11:53:39.598Z,25.84
2018-07-13T11:54:40.194Z,25.84
2018-07-13T11:55:40.782Z,25.84
2018-07-13T11:56:41.376Z,25.80
2018-07-13T11:57:41.975Z,25.84
2018-07-13T11:58:42.571Z,25.77
2018-07-13T11:59:43.167Z,25.81
2018-07-13T12:00:43.758Z,25.77
2018-07-13T12:01:44.389Z,25.81
2018-07-13T12:02:44.942Z,25.87
2018-07-13T12:03:45.540Z,25.87
2018-07-13T12:04:46.134Z,25.85
2018-07-13T12:05:46.731Z,25.83
2018-07-13T12:06:47.478Z,25.98
2018-07-13T12:07:48.388Z,26.07
2018-07-13T12:08:48.718Z,26.15
2018-07-13T12:09:49.322Z,26.21
2018-07-13T12:10:49.919Z,26.18
2018-07-13T12:11:50.561Z,26.21
2018-07-13T12:12:51.158Z,26.13
2018-07-13T12:13:51.745Z,26.28
2018-07-13T12:14:52.340Z,26.37
2018-07-13T12:15:52.941Z,26.38
2018-07-13T12:16:53.542Z,26.47
2018-07-13T12:17:54.135Z,26.59
2018-07-13T12:18:54.724Z,26.55
2018-07-13T12:19:55.383Z,26.51
2018-07-13T12:20:55.922Z,26.58
2018-07-13T12:21:56.516Z,26.60
2018-07-13T12:22:57.162Z,26.52
2018-07-13T12:23:57.822Z,26.58
2018-07-13T12:24:58.357Z,26.84
2018-07-13T12:25:58.996Z,26.89
2018-07-13T12:26:59.653Z,26.85
2018-07-13T12:28:00.187Z,26.93
2018-07-13T12:29:00.786Z,27.00
2018-07-13T12:30:01.430Z,27.08
2018-07-13T12:31:02.026Z,27.21
2018-07-13T12:32:02.628Z,27.32
2018-07-13T12:33:03.239Z,27.33
2018-07-13T12:34:03.880Z,27.58
2018-07-13T12:35:04.522Z,27.59
2018-07-13T12:36:05.121Z,27.59
2018-07-13T12:37:05.721Z,27.63
2018-07-13T12:38:06.327Z,27.74
2018-07-13T12:39:06.922Z,27.73
2018-07-13T12:40:07.521Z,27.82
2018-07-13T12:41:08.123Z,27.86
2018-07-13T12:42:08.724Z,27.83
2018-07-13T12:43:09.368Z,27.85
2018-07-13T12:44:09.972Z,27.90
2018-07-13T12:45:10.611Z,28.05
2018-07-13T12:46:11.291Z,28.05
2018-07-13T12:47:11.805Z,28.07
2018-07-13T12:48:12.410Z,28.07
2018-07-13T12:49:13.055Z,28.14
2018-07-13T12:50:13.695Z,28.22
2018-07-13T12:51:14.293Z,28.26
2018-07-13T12:52:14.893Z,28.30
2018-07-13T12:53:15.537Z,28.32
2018-07-13T12:54:16.157Z,28.32
2018-07-13T12:55:16.797Z,28.49
2018-07-13T12:56:17.385Z,28.37
2018-07-13T12:57:17.988Z,28.41
2018-07-13T12:58:18.684Z,28.52
2018-07-13T12:59:19.303Z,28.51
2018-07-13T13:00:19.876Z,28.49